Känerkinden
Datum - Zeit
TemperaturTaupunktFeuchteSolar Wind aus Richtung WindböenLuftdruck (QFF)RegenRegenstärkeTrend
03.05.2026 - 00.00Uhr14.4 °C9.8 °C74 %0.0 W/m²1.1 km/hWesten3.2 km/h1015.8 hPa0.0 mm0.0 mm/hwechselhaft
03.05.2026 - 00.05Uhr14.3 °C9.8 °C74 %0.0 W/m²0.0 km/hWesten0.0 km/h1015.8 hPa0.0 mm0.0 mm/hwechselhaft
03.05.2026 - 00.10Uhr14.3 °C9.9 °C75 %0.0 W/m²0.0 km/hWesten0.0 km/h1015.8 hPa0.0 mm0.0 mm/hwechselhaft
03.05.2026 - 00.15Uhr14.4 °C10.0 °C75 %0.0 W/m²0.0 km/hWesten0.0 km/h1015.7 hPa0.0 mm0.0 mm/hwechselhaft
03.05.2026 - 00.20Uhr14.4 °C9.9 °C74 %0.0 W/m²0.0 km/hWesten0.0 km/h1015.7 hPa0.0 mm0.0 mm/hwechselhaft
03.05.2026 - 00.25Uhr14.4 °C9.8 °C74 %0.0 W/m²0.0 km/hWesten0.0 km/h1015.7 hPa0.0 mm0.0 mm/hwechselhaft
03.05.2026 - 00.30Uhr14.4 °C9.4 °C72 %0.0 W/m²0.4 km/hWesten1.4 km/h1015.7 hPa0.0 mm0.0 mm/hwechselhaft
03.05.2026 - 00.35Uhr14.4 °C9.4 °C72 %0.0 W/m²0.0 km/hWesten0.0 km/h1015.7 hPa0.0 mm0.0 mm/hwechselhaft
03.05.2026 - 00.40Uhr14.3 °C9.2 °C71 %0.0 W/m²0.0 km/hWesten0.0 km/h1015.7 hPa0.0 mm0.0 mm/hwechselhaft
03.05.2026 - 00.45Uhr14.2 °C8.9 °C70 %0.0 W/m²0.0 km/hWesten0.0 km/h1015.6 hPa0.0 mm0.0 mm/hwechselhaft
03.05.2026 - 00.50Uhr14.2 °C8.9 °C71 %0.0 W/m²0.0 km/hWesten0.0 km/h1015.6 hPa0.0 mm0.0 mm/hwechselhaft
03.05.2026 - 00.55Uhr14.1 °C9.0 °C72 %0.0 W/m²0.0 km/hWesten0.0 km/h1015.6 hPa0.0 mm0.0 mm/hwechselhaft
03.05.2026 - 01.00Uhr13.9 °C8.9 °C72 %0.0 W/m²0.0 km/hWesten0.0 km/h1015.6 hPa0.0 mm0.0 mm/hwechselhaft
03.05.2026 - 01.05Uhr13.8 °C9.0 °C73 %0.0 W/m²0.0 km/hWesten0.0 km/h1015.6 hPa0.0 mm0.0 mm/hwechselhaft
03.05.2026 - 01.10Uhr13.7 °C8.7 °C72 %0.0 W/m²0.0 km/hWesten0.0 km/h1015.5 hPa0.0 mm0.0 mm/hwechselhaft
03.05.2026 - 01.15Uhr13.6 °C8.5 °C72 %0.0 W/m²0.0 km/hWesten0.0 km/h1015.5 hPa0.0 mm0.0 mm/hwechselhaft
03.05.2026 - 01.20Uhr13.4 °C8.4 °C71 %0.0 W/m²0.0 km/hWesten0.0 km/h1015.5 hPa0.0 mm0.0 mm/hwechselhaft
03.05.2026 - 01.25Uhr13.3 °C8.5 °C72 %0.0 W/m²0.0 km/hWesten0.0 km/h1015.5 hPa0.0 mm0.0 mm/hwechselhaft
03.05.2026 - 01.30Uhr13.2 °C8.5 °C73 %0.0 W/m²0.0 km/hWesten0.0 km/h1015.5 hPa0.0 mm0.0 mm/hwechselhaft
03.05.2026 - 01.35Uhr13.1 °C8.2 °C72 %0.0 W/m²0.0 km/hWesten0.0 km/h1015.4 hPa0.0 mm0.0 mm/hwechselhaft
03.05.2026 - 01.40Uhr12.9 °C8.3 °C73 %0.0 W/m²0.0 km/hWesten0.0 km/h1015.4 hPa0.0 mm0.0 mm/hwechselhaft
03.05.2026 - 01.45Uhr12.8 °C8.3 °C74 %0.0 W/m²0.0 km/hWesten0.0 km/h1015.4 hPa0.0 mm0.0 mm/hwechselhaft
03.05.2026 - 01.50Uhr12.7 °C8.0 °C73 %0.0 W/m²0.0 km/hWesten0.0 km/h1015.4 hPa0.0 mm0.0 mm/hwechselhaft
03.05.2026 - 01.55Uhr12.6 °C7.9 °C73 %0.0 W/m²0.0 km/hWesten0.0 km/h1015.3 hPa0.0 mm0.0 mm/hwechselhaft
03.05.2026 - 02.00Uhr12.4 °C7.9 °C74 %0.0 W/m²0.0 km/hWesten0.0 km/h1015.3 hPa0.0 mm0.0 mm/hwechselhaft
03.05.2026 - 02.05Uhr12.3 °C7.8 °C74 %0.0 W/m²0.0 km/hNord-NO0.0 km/h1015.3 hPa0.0 mm0.0 mm/hwechselhaft
03.05.2026 - 02.10Uhr12.3 °C7.7 °C74 %0.0 W/m²0.0 km/hNord-NO0.0 km/h1015.3 hPa0.0 mm0.0 mm/hwechselhaft
03.05.2026 - 02.15Uhr12.2 °C7.4 °C72 %0.0 W/m²0.0 km/hNord-NO0.0 km/h1015.3 hPa0.0 mm0.0 mm/hwechselhaft
03.05.2026 - 02.20Uhr12.1 °C7.1 °C71 %0.0 W/m²0.0 km/hNord-NO0.0 km/h1015.2 hPa0.0 mm0.0 mm/hwechselhaft
03.05.2026 - 02.25Uhr12.0 °C7.1 °C72 %0.0 W/m²0.0 km/hNord-NO0.0 km/h1015.2 hPa0.0 mm0.0 mm/hwechselhaft
03.05.2026 - 02.30Uhr11.9 °C7.1 °C73 %0.0 W/m²0.0 km/hNord-NO0.0 km/h1015.2 hPa0.0 mm0.0 mm/hwechselhaft
03.05.2026 - 02.35Uhr11.8 °C7.1 °C73 %0.0 W/m²0.0 km/hNord-NO0.0 km/h1015.1 hPa0.0 mm0.0 mm/hwechselhaft
03.05.2026 - 02.40Uhr11.7 °C7.1 °C73 %0.0 W/m²0.0 km/hNord-NO0.0 km/h1015.0 hPa0.0 mm0.0 mm/hwechselhaft
03.05.2026 - 02.45Uhr11.6 °C7.1 °C74 %0.0 W/m²0.0 km/hNord-NO0.0 km/h1015.0 hPa0.0 mm0.0 mm/hwechselhaft
03.05.2026 - 02.50Uhr11.6 °C7.1 °C74 %0.0 W/m²0.0 km/hNord-NO0.0 km/h1015.0 hPa0.0 mm0.0 mm/hwechselhaft
03.05.2026 - 02.55Uhr11.6 °C7.1 °C74 %0.0 W/m²0.0 km/hNord-NO0.0 km/h1015.0 hPa0.0 mm0.0 mm/hwechselhaft
03.05.2026 - 03.00Uhr11.6 °C7.0 °C74 %0.0 W/m²0.0 km/hNord-NO0.0 km/h1015.0 hPa0.0 mm0.0 mm/hwechselhaft
03.05.2026 - 03.05Uhr11.7 °C7.1 °C73 %0.0 W/m²0.0 km/hNord-NO0.0 km/h1015.0 hPa0.0 mm0.0 mm/hwechselhaft
03.05.2026 - 03.10Uhr11.7 °C7.0 °C73 %0.0 W/m²0.0 km/hNord-NO0.0 km/h1015.0 hPa0.0 mm0.0 mm/hwechselhaft
03.05.2026 - 03.15Uhr11.7 °C6.9 °C72 %0.0 W/m²0.0 km/hNord-NO0.0 km/h1015.0 hPa0.0 mm0.0 mm/hwechselhaft
03.05.2026 - 03.20Uhr11.7 °C6.8 °C72 %0.0 W/m²0.0 km/hNord-NO0.0 km/h1015.0 hPa0.0 mm0.0 mm/hwechselhaft
03.05.2026 - 03.25Uhr11.7 °C6.8 °C72 %0.0 W/m²0.0 km/hNord-NO0.0 km/h1014.9 hPa0.0 mm0.0 mm/hwechselhaft
03.05.2026 - 03.30Uhr11.6 °C6.8 °C72 %0.0 W/m²0.0 km/hNord-NO0.0 km/h1014.9 hPa0.0 mm0.0 mm/hwechselhaft
03.05.2026 - 03.35Uhr11.6 °C6.8 °C73 %0.0 W/m²0.0 km/hNord-NO0.0 km/h1015.0 hPa0.0 mm0.0 mm/hwechselhaft
03.05.2026 - 03.40Uhr11.6 °C6.7 °C72 %0.0 W/m²0.0 km/hNord-NO0.0 km/h1014.9 hPa0.0 mm0.0 mm/hwechselhaft
03.05.2026 - 03.45Uhr11.4 °C6.7 °C73 %0.0 W/m²0.0 km/hNord-NO0.0 km/h1014.9 hPa0.0 mm0.0 mm/hwechselhaft
03.05.2026 - 03.50Uhr11.4 °C6.7 °C73 %0.0 W/m²0.0 km/hNord-NO0.0 km/h1014.8 hPa0.0 mm0.0 mm/hwechselhaft
03.05.2026 - 03.55Uhr11.4 °C6.6 °C73 %0.0 W/m²0.0 km/hNord-NO0.0 km/h1014.8 hPa0.0 mm0.0 mm/hwechselhaft
03.05.2026 - 04.00Uhr11.3 °C6.6 °C73 %0.0 W/m²0.0 km/hNord-NO0.0 km/h1014.7 hPa0.0 mm0.0 mm/hwechselhaft
03.05.2026 - 04.05Uhr11.2 °C6.6 °C73 %0.0 W/m²2.2 km/hOst-NO4.7 km/h1014.6 hPa0.0 mm0.0 mm/hwechselhaft
03.05.2026 - 04.10Uhr11.2 °C6.7 °C74 %0.0 W/m²0.2 km/hOst-NO1.4 km/h1014.6 hPa0.0 mm0.0 mm/hwechselhaft
03.05.2026 - 04.15Uhr11.2 °C6.7 °C74 %0.0 W/m²0.0 km/hOst-NO0.0 km/h1014.5 hPa0.0 mm0.0 mm/hwechselhaft
03.05.2026 - 04.20Uhr11.2 °C6.7 °C74 %0.0 W/m²0.0 km/hOst-NO0.0 km/h1014.4 hPa0.0 mm0.0 mm/hwechselhaft
03.05.2026 - 04.25Uhr11.2 °C6.7 °C74 %0.0 W/m²0.0 km/hOst-NO0.0 km/h1014.4 hPa0.0 mm0.0 mm/hwechselhaft
03.05.2026 - 04.30Uhr11.2 °C6.7 °C74 %0.0 W/m²0.0 km/hOst-NO0.0 km/h1014.2 hPa0.0 mm0.0 mm/hwechselhaft
03.05.2026 - 04.35Uhr11.2 °C6.7 °C74 %0.0 W/m²0.0 km/hOst-NO0.0 km/h1014.2 hPa0.0 mm0.0 mm/hwechselhaft
03.05.2026 - 04.40Uhr11.2 °C6.7 °C74 %0.0 W/m²0.0 km/hOst-NO0.0 km/h1014.0 hPa0.0 mm0.0 mm/hwechselhaft
03.05.2026 - 04.45Uhr11.2 °C6.7 °C74 %0.0 W/m²0.0 km/hOst-NO0.0 km/h1014.0 hPa0.0 mm0.0 mm/hwechselhaft
03.05.2026 - 04.50Uhr11.2 °C6.6 °C74 %0.0 W/m²0.0 km/hNord-NO0.0 km/h1014.1 hPa0.0 mm0.0 mm/hwechselhaft
03.05.2026 - 04.55Uhr11.3 °C6.6 °C73 %0.0 W/m²0.0 km/hNordosten0.0 km/h1014.1 hPa0.0 mm0.0 mm/hwechselhaft
03.05.2026 - 05.00Uhr11.3 °C6.5 °C73 %0.0 W/m²0.0 km/hNordosten0.0 km/h1014.2 hPa0.0 mm0.0 mm/hwechselhaft
03.05.2026 - 05.05Uhr11.3 °C6.5 °C72 %0.0 W/m²3.7 km/hWest-SW6.5 km/h1014.3 hPa0.0 mm0.0 mm/hwechselhaft
03.05.2026 - 05.10Uhr11.2 °C6.5 °C73 %0.0 W/m²5.5 km/hWest-SW6.5 km/h1014.3 hPa0.0 mm0.0 mm/hwechselhaft
03.05.2026 - 05.15Uhr11.2 °C6.6 °C74 %0.0 W/m²2.6 km/hWest-SW6.5 km/h1014.2 hPa0.0 mm0.0 mm/hwechselhaft
03.05.2026 - 05.20Uhr11.1 °C6.6 °C74 %0.0 W/m²3.5 km/hSüdosten6.5 km/h1014.2 hPa0.0 mm0.0 mm/hwechselhaft
03.05.2026 - 05.25Uhr11.1 °C6.6 °C74 %0.0 W/m²2.3 km/hSüdosten6.5 km/h1014.1 hPa0.0 mm0.0 mm/hwechselhaft
03.05.2026 - 05.30Uhr11.1 °C6.6 °C74 %0.0 W/m²2.7 km/hSüdosten6.5 km/h1014.1 hPa0.0 mm0.0 mm/hwechselhaft
03.05.2026 - 05.35Uhr11.1 °C6.6 °C74 %0.0 W/m²3.2 km/hOsten6.5 km/h1014.0 hPa0.0 mm0.0 mm/hwechselhaft
03.05.2026 - 05.40Uhr11.1 °C6.6 °C74 %0.0 W/m²2.9 km/hOst-NO4.7 km/h1014.0 hPa0.0 mm0.0 mm/hwechselhaft
03.05.2026 - 05.45Uhr11.1 °C6.6 °C74 %0.0 W/m²2.5 km/hOst-NO4.7 km/h1014.0 hPa0.0 mm0.0 mm/hwechselhaft
03.05.2026 - 05.50Uhr11.1 °C6.5 °C74 %0.0 W/m²2.2 km/hOsten6.5 km/h1014.0 hPa0.0 mm0.0 mm/hwechselhaft
03.05.2026 - 05.55Uhr11.1 °C6.4 °C73 %0.0 W/m²1.8 km/hOst-SO6.5 km/h1014.0 hPa0.0 mm0.0 mm/hwechselhaft
03.05.2026 - 06.00Uhr11.2 °C6.3 °C72 %0.0 W/m²0.8 km/hOst-SO3.2 km/h1014.0 hPa0.0 mm0.0 mm/hwechselhaft
03.05.2026 - 06.05Uhr11.2 °C6.4 °C73 %0.0 W/m²10.4 km/hWest-NW14.4 km/h1014.1 hPa0.0 mm0.0 mm/hwechselhaft
03.05.2026 - 06.10Uhr11.1 °C6.6 °C74 %5.0 W/m²6.8 km/hWest-SW9.7 km/h1014.2 hPa0.0 mm0.0 mm/hwechselhaft
03.05.2026 - 06.15Uhr10.9 °C6.4 °C74 %5.0 W/m²7.1 km/hSüdwesten11.2 km/h1014.2 hPa0.0 mm0.0 mm/hwechselhaft
03.05.2026 - 06.20Uhr10.9 °C6.4 °C74 %7.0 W/m²5.6 km/hWest-SW6.5 km/h1014.2 hPa0.0 mm0.0 mm/hwechselhaft
03.05.2026 - 06.25Uhr10.9 °C6.3 °C74 %11.0 W/m²6.3 km/hWest-SW7.9 km/h1014.3 hPa0.0 mm0.0 mm/hwechselhaft
03.05.2026 - 06.30Uhr11.0 °C6.4 °C74 %12.0 W/m²4.5 km/hWest-SW6.5 km/h1014.3 hPa0.0 mm0.0 mm/hwechselhaft
03.05.2026 - 06.35Uhr11.1 °C6.6 °C74 %18.0 W/m²3.7 km/hWest-SW4.7 km/h1014.3 hPa0.0 mm0.0 mm/hwechselhaft
03.05.2026 - 06.40Uhr11.1 °C6.6 °C74 %25.0 W/m²4.1 km/hWest-SW6.5 km/h1014.4 hPa0.0 mm0.0 mm/hwechselhaft
03.05.2026 - 06.45Uhr11.0 °C6.5 °C74 %35.0 W/m²2.1 km/hWest-SW4.7 km/h1014.4 hPa0.0 mm0.0 mm/hwechselhaft
03.05.2026 - 06.50Uhr10.9 °C6.4 °C74 %51.0 W/m²0.0 km/hWest-SW0.0 km/h1014.3 hPa0.0 mm0.0 mm/hwechselhaft
03.05.2026 - 06.55Uhr10.8 °C6.5 °C75 %63.0 W/m²1.6 km/hWest-SW3.2 km/h1014.2 hPa0.0 mm0.0 mm/hwechselhaft
03.05.2026 - 07.00Uhr10.8 °C6.5 °C75 %70.0 W/m²2.7 km/hOst-SO6.5 km/h1014.2 hPa0.0 mm0.0 mm/hwechselhaft
03.05.2026 - 07.05Uhr10.8 °C6.6 °C76 %77.0 W/m²0.5 km/hOst-SO1.4 km/h1014.2 hPa0.0 mm0.0 mm/hwechselhaft
03.05.2026 - 07.10Uhr10.9 °C6.8 °C76 %90.0 W/m²0.0 km/hOst-SO0.0 km/h1014.3 hPa0.0 mm0.0 mm/hwechselhaft
03.05.2026 - 07.15Uhr11.1 °C7.0 °C76 %130.0 W/m²0.0 km/hOst-SO0.0 km/h1014.3 hPa0.0 mm0.0 mm/hwechselhaft
03.05.2026 - 07.20Uhr11.3 °C7.2 °C76 %135.0 W/m²0.0 km/hOst-SO0.0 km/h1014.3 hPa0.0 mm0.0 mm/hwechselhaft
03.05.2026 - 07.25Uhr11.4 °C7.3 °C76 %141.0 W/m²0.0 km/hOst-SO0.0 km/h1014.3 hPa0.0 mm0.0 mm/hwechselhaft
03.05.2026 - 07.30Uhr11.7 °C7.6 °C76 %146.0 W/m²0.0 km/hOst-SO0.0 km/h1014.2 hPa0.0 mm0.0 mm/hwechselhaft
03.05.2026 - 07.35Uhr12.1 °C7.7 °C74 %113.0 W/m²0.0 km/hOst-SO0.0 km/h1014.2 hPa0.0 mm0.0 mm/hwechselhaft
03.05.2026 - 07.40Uhr12.3 °C7.8 °C74 %111.0 W/m²0.0 km/hOst-SO0.0 km/h1014.2 hPa0.0 mm0.0 mm/hwechselhaft
03.05.2026 - 07.45Uhr12.7 °C8.2 °C74 %114.0 W/m²0.0 km/hOst-SO0.0 km/h1014.2 hPa0.0 mm0.0 mm/hwechselhaft
03.05.2026 - 07.50Uhr13.0 °C8.4 °C74 %118.0 W/m²0.0 km/hOst-NO0.0 km/h1014.2 hPa0.0 mm0.0 mm/hwechselhaft
03.05.2026 - 07.55Uhr13.2 °C8.3 °C72 %123.0 W/m²0.0 km/hOst-NO0.0 km/h1014.3 hPa0.0 mm0.0 mm/hwechselhaft
03.05.2026 - 08.00Uhr13.4 °C8.5 °C72 %169.0 W/m²1.2 km/hNordosten3.2 km/h1014.3 hPa0.0 mm0.0 mm/hwechselhaft
03.05.2026 - 08.05Uhr13.5 °C8.7 °C73 %216.0 W/m²1.4 km/hNord-NO3.2 km/h1014.4 hPa0.0 mm0.0 mm/hwechselhaft
03.05.2026 - 08.10Uhr13.8 °C9.3 °C74 %243.0 W/m²1.5 km/hNord-NW3.2 km/h1014.4 hPa0.0 mm0.0 mm/hwechselhaft
03.05.2026 - 08.15Uhr14.0 °C9.4 °C74 %253.0 W/m²0.6 km/hNord-NW1.4 km/h1014.4 hPa0.0 mm0.0 mm/hwechselhaft
03.05.2026 - 08.20Uhr14.2 °C9.2 °C72 %230.0 W/m²5.3 km/hWest-SW7.9 km/h1014.5 hPa0.0 mm0.0 mm/hwechselhaft
03.05.2026 - 08.25Uhr14.4 °C8.9 °C70 %244.0 W/m²7.0 km/hWest-SW9.7 km/h1014.6 hPa0.0 mm0.0 mm/hwechselhaft
03.05.2026 - 08.30Uhr14.5 °C8.9 °C69 %209.0 W/m²6.0 km/hWest-SW7.9 km/h1014.6 hPa0.0 mm0.0 mm/hwechselhaft
03.05.2026 - 08.35Uhr14.6 °C8.8 °C68 %236.0 W/m²4.3 km/hWest-SW6.5 km/h1014.6 hPa0.0 mm0.0 mm/hwechselhaft
03.05.2026 - 08.40Uhr14.7 °C8.8 °C68 %260.0 W/m²5.0 km/hSüdwesten7.9 km/h1014.6 hPa0.0 mm0.0 mm/hwechselhaft
03.05.2026 - 08.45Uhr14.9 °C8.9 °C68 %232.0 W/m²7.6 km/hWest-SW9.7 km/h1014.6 hPa0.0 mm0.0 mm/hwechselhaft
03.05.2026 - 08.50Uhr15.2 °C9.2 °C68 %250.0 W/m²6.6 km/hWest-SW9.7 km/h1014.5 hPa0.0 mm0.0 mm/hwechselhaft
03.05.2026 - 08.55Uhr15.2 °C9.0 °C66 %309.0 W/m²4.3 km/hSüdwesten6.5 km/h1014.5 hPa0.0 mm0.0 mm/hwechselhaft
03.05.2026 - 09.00Uhr15.4 °C9.1 °C66 %367.0 W/m²4.3 km/hSüdwesten6.5 km/h1014.5 hPa0.0 mm0.0 mm/hwechselhaft
03.05.2026 - 09.05Uhr15.7 °C8.9 °C64 %385.0 W/m²3.6 km/hWest-SW6.5 km/h1014.5 hPa0.0 mm0.0 mm/hwechselhaft
03.05.2026 - 09.10Uhr15.9 °C8.9 °C63 %385.0 W/m²2.3 km/hSüdwesten4.7 km/h1014.5 hPa0.0 mm0.0 mm/hwechselhaft
03.05.2026 - 09.15Uhr16.2 °C9.0 °C62 %369.0 W/m²1.8 km/hSüdwesten6.5 km/h1014.4 hPa0.0 mm0.0 mm/hwechselhaft
03.05.2026 - 09.20Uhr16.6 °C9.5 °C63 %371.0 W/m²3.8 km/hOsten7.9 km/h1014.3 hPa0.0 mm0.0 mm/hwechselhaft
03.05.2026 - 09.25Uhr17.0 °C9.5 °C61 %394.0 W/m²1.8 km/hOsten6.5 km/h1014.3 hPa0.0 mm0.0 mm/hwechselhaft
03.05.2026 - 09.30Uhr17.4 °C9.6 °C60 %385.0 W/m²3.7 km/hOsten7.9 km/h1014.3 hPa0.0 mm0.0 mm/hwechselhaft
03.05.2026 - 09.35Uhr17.8 °C9.6 °C59 %413.0 W/m²2.4 km/hOst-NO6.5 km/h1014.2 hPa0.0 mm0.0 mm/hwechselhaft
03.05.2026 - 09.40Uhr18.1 °C8.6 °C54 %441.0 W/m²4.6 km/hOst-NO7.9 km/h1014.2 hPa0.0 mm0.0 mm/hwechselhaft
03.05.2026 - 09.45Uhr18.4 °C8.8 °C54 %452.0 W/m²2.2 km/hOst-NO6.5 km/h1014.2 hPa0.0 mm0.0 mm/hwechselhaft
03.05.2026 - 09.50Uhr18.6 °C9.2 °C54 %490.0 W/m²3.5 km/hOst-NO6.5 km/h1014.2 hPa0.0 mm0.0 mm/hwechselhaft
03.05.2026 - 09.55Uhr18.7 °C9.4 °C55 %517.0 W/m²6.2 km/hOst-SO9.7 km/h1014.2 hPa0.0 mm0.0 mm/hwechselhaft
03.05.2026 - 10.00Uhr18.9 °C9.4 °C54 %512.0 W/m²3.4 km/hOsten7.9 km/h1014.2 hPa0.0 mm0.0 mm/hwechselhaft
03.05.2026 - 10.05Uhr19.1 °C9.6 °C54 %520.0 W/m²2.6 km/hNordosten7.9 km/h1014.2 hPa0.0 mm0.0 mm/hwechselhaft
03.05.2026 - 10.10Uhr19.2 °C9.4 °C53 %548.0 W/m²2.1 km/hNord-NO4.7 km/h1014.1 hPa0.0 mm0.0 mm/hwechselhaft
03.05.2026 - 10.15Uhr19.3 °C9.5 °C53 %554.0 W/m²5.2 km/hNord-NW11.2 km/h1014.1 hPa0.0 mm0.0 mm/hwechselhaft
03.05.2026 - 10.20Uhr19.3 °C9.7 °C54 %585.0 W/m²5.4 km/hNord-NO11.2 km/h1014.1 hPa0.0 mm0.0 mm/hwechselhaft
03.05.2026 - 10.25Uhr19.4 °C9.5 °C53 %617.0 W/m²6.1 km/hOsten13.0 km/h1014.0 hPa0.0 mm0.0 mm/hwechselhaft
03.05.2026 - 10.30Uhr19.6 °C9.4 °C52 %591.0 W/m²8.2 km/hOsten13.0 km/h1013.9 hPa0.0 mm0.0 mm/hwechselhaft
03.05.2026 - 10.35Uhr19.7 °C10.0 °C54 %364.0 W/m²6.8 km/hOsten11.2 km/h1013.8 hPa0.0 mm0.0 mm/hwechselhaft
03.05.2026 - 10.40Uhr19.8 °C10.4 °C55 %418.0 W/m²8.5 km/hOst-SO14.4 km/h1013.7 hPa0.0 mm0.0 mm/hwechselhaft
03.05.2026 - 10.45Uhr19.8 °C10.5 °C55 %399.0 W/m²9.7 km/hOst-SO19.4 km/h1013.7 hPa0.0 mm0.0 mm/hwechselhaft
03.05.2026 - 10.50Uhr19.8 °C10.6 °C55 %323.0 W/m²8.2 km/hSüdosten14.4 km/h1013.7 hPa0.0 mm0.0 mm/hwechselhaft
03.05.2026 - 10.55Uhr19.7 °C10.5 °C55 %302.0 W/m²8.3 km/hSüdosten16.2 km/h1013.8 hPa0.0 mm0.0 mm/hwechselhaft
03.05.2026 - 11.00Uhr19.6 °C10.5 °C56 %357.0 W/m²8.7 km/hSüdosten14.4 km/h1013.8 hPa0.0 mm0.0 mm/hwechselhaft
03.05.2026 - 11.05Uhr19.6 °C10.6 °C56 %496.0 W/m²9.8 km/hSüdosten17.6 km/h1013.8 hPa0.0 mm0.0 mm/hwechselhaft
03.05.2026 - 11.10Uhr19.5 °C10.5 °C56 %327.0 W/m²11.2 km/hOst-SO17.6 km/h1013.7 hPa0.0 mm0.0 mm/hwechselhaft
03.05.2026 - 11.15Uhr19.5 °C10.7 °C56 %265.0 W/m²11.0 km/hOst-SO19.4 km/h1013.7 hPa0.0 mm0.0 mm/hwechselhaft
03.05.2026 - 11.20Uhr19.3 °C10.5 °C57 %239.0 W/m²10.8 km/hOst-SO17.6 km/h1013.7 hPa0.0 mm0.0 mm/hwechselhaft
03.05.2026 - 11.25Uhr19.2 °C10.5 °C57 %264.0 W/m²9.4 km/hSüdosten17.6 km/h1013.7 hPa0.0 mm0.0 mm/hwechselhaft
03.05.2026 - 11.30Uhr19.0 °C10.8 °C59 %299.0 W/m²9.5 km/hSüdosten16.2 km/h1013.6 hPa0.0 mm0.0 mm/hwechselhaft
03.05.2026 - 11.35Uhr18.9 °C10.7 °C59 %299.0 W/m²9.4 km/hSüdosten16.2 km/h1013.6 hPa0.0 mm0.0 mm/hwechselhaft
03.05.2026 - 11.40Uhr18.8 °C10.3 °C58 %302.0 W/m²10.1 km/hOst-SO17.6 km/h1013.6 hPa0.0 mm0.0 mm/hwechselhaft
03.05.2026 - 11.45Uhr18.8 °C10.2 °C57 %348.0 W/m²10.4 km/hOst-SO17.6 km/h1013.6 hPa0.0 mm0.0 mm/hwechselhaft
03.05.2026 - 11.50Uhr18.8 °C10.4 °C58 %427.0 W/m²9.4 km/hOst-SO14.4 km/h1013.6 hPa0.0 mm0.0 mm/hwechselhaft
03.05.2026 - 11.55Uhr19.0 °C10.6 °C58 %452.0 W/m²8.8 km/hOst-SO13.0 km/h1013.5 hPa0.0 mm0.0 mm/hwechselhaft
03.05.2026 - 12.00Uhr19.2 °C10.8 °C58 %443.0 W/m²11.4 km/hSüdosten19.4 km/h1013.5 hPa0.0 mm0.0 mm/hwechselhaft
03.05.2026 - 12.05Uhr19.3 °C10.6 °C57 %420.0 W/m²9.2 km/hSüdosten17.6 km/h1013.5 hPa0.0 mm0.0 mm/hwechselhaft
03.05.2026 - 12.10Uhr19.3 °C10.6 °C57 %394.0 W/m²10.0 km/hOst-SO17.6 km/h1013.3 hPa0.0 mm0.0 mm/hwechselhaft
03.05.2026 - 12.15Uhr19.4 °C10.8 °C57 %376.0 W/m²8.4 km/hOst-SO17.6 km/h1013.1 hPa0.0 mm0.0 mm/hwechselhaft
03.05.2026 - 12.20Uhr19.6 °C11.0 °C58 %408.0 W/m²8.3 km/hOst-SO13.0 km/h1013.0 hPa0.0 mm0.0 mm/hwechselhaft
03.05.2026 - 12.25Uhr19.6 °C11.3 °C59 %461.0 W/m²5.2 km/hOsten9.7 km/h1012.9 hPa0.0 mm0.0 mm/hwechselhaft
03.05.2026 - 12.30Uhr19.9 °C11.5 °C58 %575.0 W/m²4.6 km/hOst-SO9.7 km/h1012.9 hPa0.0 mm0.0 mm/hwechselhaft
03.05.2026 - 12.35Uhr20.1 °C11.4 °C57 %705.0 W/m²1.3 km/hSüd-SO6.5 km/h1012.8 hPa0.0 mm0.0 mm/hwechselhaft
03.05.2026 - 12.40Uhr20.3 °C11.0 °C55 %900.0 W/m²6.0 km/hOst-NO11.2 km/h1012.8 hPa0.0 mm0.0 mm/hwechselhaft
03.05.2026 - 12.45Uhr20.6 °C10.9 °C54 %909.0 W/m²7.5 km/hOsten13.0 km/h1012.7 hPa0.0 mm0.0 mm/hwechselhaft
03.05.2026 - 12.50Uhr21.2 °C11.2 °C53 %946.0 W/m²7.5 km/hOst-NO13.0 km/h1012.7 hPa0.0 mm0.0 mm/hwechselhaft
03.05.2026 - 12.55Uhr21.2 °C10.1 °C49 %853.0 W/m²6.3 km/hNordosten13.0 km/h1012.6 hPa0.0 mm0.0 mm/hwechselhaft
03.05.2026 - 13.00Uhr21.2 °C10.7 °C51 %965.0 W/m²6.4 km/hOsten13.0 km/h1012.6 hPa0.0 mm0.0 mm/hwechselhaft
03.05.2026 - 13.05Uhr21.3 °C10.7 °C51 %958.0 W/m²5.4 km/hOsten11.2 km/h1012.6 hPa0.0 mm0.0 mm/hRegen
03.05.2026 - 13.10Uhr21.4 °C10.6 °C50 %587.0 W/m²5.5 km/hOst-NO9.7 km/h1012.5 hPa0.0 mm0.0 mm/hRegen
03.05.2026 - 13.15Uhr21.6 °C10.3 °C49 %1035.0 W/m²4.5 km/hOst-NO9.7 km/h1012.5 hPa0.0 mm0.0 mm/hRegen
03.05.2026 - 13.20Uhr21.6 °C10.0 °C48 %1035.0 W/m²2.8 km/hNord-NW4.7 km/h1012.5 hPa0.0 mm0.0 mm/hRegen
03.05.2026 - 13.25Uhr21.9 °C10.3 °C48 %874.0 W/m²6.6 km/hOst-SO19.4 km/h1012.5 hPa0.0 mm0.0 mm/hRegen
03.05.2026 - 13.30Uhr22.4 °C11.8 °C51 %921.0 W/m²12.2 km/hOst-SO20.9 km/h1012.4 hPa0.0 mm0.0 mm/hRegen
03.05.2026 - 13.35Uhr22.4 °C11.6 °C50 %898.0 W/m²11.9 km/hOst-SO20.9 km/h1012.5 hPa0.0 mm0.0 mm/hRegen
03.05.2026 - 13.40Uhr22.3 °C11.9 °C52 %872.0 W/m²9.2 km/hOst-SO17.6 km/h1012.5 hPa0.0 mm0.0 mm/hRegen
03.05.2026 - 13.45Uhr22.3 °C11.7 °C51 %844.0 W/m²9.1 km/hOst-SO17.6 km/h1012.4 hPa0.0 mm0.0 mm/hRegen
03.05.2026 - 13.50Uhr22.6 °C12.0 °C51 %780.0 W/m²8.0 km/hOst-SO19.4 km/h1012.4 hPa0.0 mm0.0 mm/hRegen
03.05.2026 - 13.55Uhr22.4 °C11.3 °C49 %858.0 W/m²9.8 km/hSüdosten14.4 km/h1012.4 hPa0.0 mm0.0 mm/hRegen
03.05.2026 - 14.00Uhr22.3 °C11.2 °C49 %849.0 W/m²7.5 km/hSüd-SO13.0 km/h1012.4 hPa0.0 mm0.0 mm/hRegen
03.05.2026 - 14.05Uhr22.6 °C11.2 °C49 %810.0 W/m²6.6 km/hSüdosten13.0 km/h1012.3 hPa0.0 mm0.0 mm/hRegen
03.05.2026 - 14.10Uhr22.4 °C10.7 °C48 %925.0 W/m²5.8 km/hSüdosten13.0 km/h1012.2 hPa0.0 mm0.0 mm/hRegen
03.05.2026 - 14.15Uhr22.5 °C10.7 °C47 %889.0 W/m²4.6 km/hSüdosten11.2 km/h1012.2 hPa0.0 mm0.0 mm/hRegen
03.05.2026 - 14.20Uhr22.7 °C11.3 °C49 %830.0 W/m²4.0 km/hSüdosten9.7 km/h1012.1 hPa0.0 mm0.0 mm/hRegen
03.05.2026 - 14.25Uhr22.8 °C10.0 °C44 %831.0 W/m²4.2 km/hWesten7.9 km/h1012.1 hPa0.0 mm0.0 mm/hRegen
03.05.2026 - 14.30Uhr22.9 °C10.1 °C44 %803.0 W/m²7.7 km/hSüdwesten11.2 km/h1012.1 hPa0.0 mm0.0 mm/hRegen
03.05.2026 - 14.35Uhr23.1 °C10.2 °C44 %821.0 W/m²8.3 km/hSüdwesten13.0 km/h1012.2 hPa0.0 mm0.0 mm/hRegen
03.05.2026 - 14.40Uhr23.1 °C11.1 °C46 %327.0 W/m²12.9 km/hNordwesten19.4 km/h1012.1 hPa0.0 mm0.0 mm/hRegen
03.05.2026 - 14.45Uhr22.9 °C11.1 °C48 %295.0 W/m²12.1 km/hNordwesten19.4 km/h1012.1 hPa0.0 mm0.0 mm/hRegen
03.05.2026 - 14.50Uhr22.5 °C10.8 °C47 %325.0 W/m²14.2 km/hWest-NW24.1 km/h1012.2 hPa0.0 mm0.0 mm/hRegen
03.05.2026 - 14.55Uhr22.2 °C10.7 °C48 %322.0 W/m²14.8 km/hWest-NW20.9 km/h1012.2 hPa0.0 mm0.0 mm/hRegen
03.05.2026 - 15.00Uhr22.0 °C11.1 °C50 %889.0 W/m²12.3 km/hNordwesten22.7 km/h1012.2 hPa0.0 mm0.0 mm/hRegen
03.05.2026 - 15.05Uhr22.2 °C10.7 °C48 %877.0 W/m²15.2 km/hNordwesten24.1 km/h1012.2 hPa0.0 mm0.0 mm/hwechselhaft
03.05.2026 - 15.10Uhr22.4 °C10.9 °C48 %793.0 W/m²13.2 km/hWest-NW19.4 km/h1012.2 hPa0.0 mm0.0 mm/hwechselhaft
03.05.2026 - 15.15Uhr22.4 °C10.6 °C47 %749.0 W/m²16.1 km/hWest-NW24.1 km/h1012.1 hPa0.0 mm0.0 mm/hwechselhaft
03.05.2026 - 15.20Uhr22.4 °C10.6 °C47 %749.0 W/m²16.0 km/hNordwesten24.1 km/h1012.2 hPa0.0 mm0.0 mm/hwechselhaft
03.05.2026 - 15.25Uhr22.5 °C10.6 °C47 %733.0 W/m²14.0 km/hNordwesten20.9 km/h1012.2 hPa0.0 mm0.0 mm/hwechselhaft
03.05.2026 - 15.30Uhr22.7 °C10.9 °C47 %860.0 W/m²14.0 km/hNordwesten25.9 km/h1012.2 hPa0.0 mm0.0 mm/hwechselhaft
03.05.2026 - 15.35Uhr22.8 °C10.5 °C46 %819.0 W/m²14.5 km/hWest-NW25.9 km/h1012.2 hPa0.0 mm0.0 mm/hwechselhaft
03.05.2026 - 15.40Uhr22.5 °C10.2 °C46 %308.0 W/m²20.0 km/hWest-NW27.4 km/h1012.2 hPa0.0 mm0.0 mm/hwechselhaft
03.05.2026 - 15.45Uhr22.1 °C10.2 °C47 %308.0 W/m²15.8 km/hWest-NW22.7 km/h1012.2 hPa0.0 mm0.0 mm/hwechselhaft
03.05.2026 - 15.50Uhr21.8 °C9.8 °C46 %149.0 W/m²13.0 km/hWesten19.4 km/h1012.3 hPa0.0 mm0.0 mm/hwechselhaft
03.05.2026 - 15.55Uhr21.4 °C9.5 °C47 %114.0 W/m²16.6 km/hWesten27.4 km/h1012.3 hPa0.0 mm0.0 mm/hwechselhaft
03.05.2026 - 16.00Uhr21.0 °C9.2 °C47 %97.0 W/m²14.5 km/hWest-NW24.1 km/h1012.3 hPa0.0 mm0.0 mm/hwechselhaft
03.05.2026 - 16.05Uhr20.6 °C8.9 °C47 %97.0 W/m²16.7 km/hWesten24.1 km/h1012.3 hPa0.0 mm0.0 mm/hwechselhaft
03.05.2026 - 16.10Uhr20.2 °C8.7 °C48 %90.0 W/m²20.2 km/hWesten32.0 km/h1012.4 hPa0.0 mm0.0 mm/hwechselhaft
03.05.2026 - 16.15Uhr19.6 °C8.5 °C48 %58.0 W/m²21.8 km/hWesten35.3 km/h1012.6 hPa0.0 mm0.0 mm/hwechselhaft
03.05.2026 - 16.20Uhr19.1 °C8.3 °C50 %53.0 W/m²17.6 km/hWesten27.4 km/h1012.8 hPa0.0 mm0.0 mm/hwechselhaft
03.05.2026 - 16.25Uhr18.6 °C8.2 °C51 %62.0 W/m²22.6 km/hWesten33.8 km/h1012.9 hPa0.0 mm0.0 mm/hwechselhaft
03.05.2026 - 16.30Uhr18.2 °C8.4 °C53 %91.0 W/m²16.1 km/hWesten25.9 km/h1012.9 hPa0.0 mm0.0 mm/hwechselhaft
03.05.2026 - 16.35Uhr17.9 °C8.5 °C54 %123.0 W/m²14.3 km/hWesten20.9 km/h1012.9 hPa0.0 mm0.0 mm/hwechselhaft
03.05.2026 - 16.40Uhr17.7 °C8.3 °C54 %142.0 W/m²13.1 km/hWesten19.4 km/h1013.0 hPa0.0 mm0.0 mm/hwechselhaft
03.05.2026 - 16.45Uhr17.6 °C8.4 °C55 %141.0 W/m²10.4 km/hWesten16.2 km/h1013.1 hPa0.0 mm0.0 mm/hwechselhaft
03.05.2026 - 16.50Uhr17.6 °C8.4 °C55 %167.0 W/m²12.8 km/hWesten19.4 km/h1013.2 hPa0.0 mm0.0 mm/hwechselhaft
03.05.2026 - 16.55Uhr17.6 °C8.4 °C55 %193.0 W/m²10.1 km/hWesten14.4 km/h1013.2 hPa0.0 mm0.0 mm/hwechselhaft
03.05.2026 - 17.00Uhr17.7 °C8.5 °C55 %200.0 W/m²13.3 km/hWesten22.7 km/h1013.3 hPa0.0 mm0.0 mm/hwechselhaft
03.05.2026 - 17.05Uhr17.6 °C8.2 °C54 %186.0 W/m²14.2 km/hWesten24.1 km/h1013.3 hPa0.0 mm0.0 mm/hwechselhaft
03.05.2026 - 17.10Uhr17.6 °C8.0 °C53 %130.0 W/m²14.2 km/hWesten20.9 km/h1013.3 hPa0.0 mm0.0 mm/hwechselhaft
03.05.2026 - 17.15Uhr17.4 °C8.0 °C54 %93.0 W/m²13.1 km/hWesten19.4 km/h1013.4 hPa0.0 mm0.0 mm/hwechselhaft
03.05.2026 - 17.20Uhr17.2 °C7.7 °C54 %98.0 W/m²14.7 km/hWesten22.7 km/h1013.4 hPa0.0 mm0.0 mm/hwechselhaft
03.05.2026 - 17.25Uhr17.1 °C8.0 °C55 %97.0 W/m²8.7 km/hWesten14.4 km/h1013.5 hPa0.0 mm0.0 mm/hwechselhaft
03.05.2026 - 17.30Uhr17.0 °C8.1 °C56 %90.0 W/m²6.6 km/hWest-SW11.2 km/h1013.5 hPa0.0 mm0.0 mm/hwechselhaft
03.05.2026 - 17.35Uhr17.0 °C8.2 °C56 %104.0 W/m²5.7 km/hWest-SW9.7 km/h1013.4 hPa0.0 mm0.0 mm/hwechselhaft
03.05.2026 - 17.40Uhr16.9 °C7.9 °C55 %111.0 W/m²4.9 km/hSüdwesten9.7 km/h1013.5 hPa0.0 mm0.0 mm/hwechselhaft
03.05.2026 - 17.45Uhr16.9 °C8.2 °C56 %114.0 W/m²1.2 km/hSüd-SW3.2 km/h1013.6 hPa0.0 mm0.0 mm/hwechselhaft
03.05.2026 - 17.50Uhr17.0 °C8.2 °C56 %114.0 W/m²1.5 km/hSüdosten3.2 km/h1013.6 hPa0.0 mm0.0 mm/hwechselhaft
03.05.2026 - 17.55Uhr17.1 °C8.7 °C58 %107.0 W/m²1.7 km/hSüdosten6.5 km/h1013.7 hPa0.0 mm0.0 mm/hwechselhaft
03.05.2026 - 18.00Uhr17.1 °C8.4 °C56 %100.0 W/m²1.7 km/hSüdosten6.5 km/h1013.7 hPa0.0 mm0.0 mm/hwechselhaft
03.05.2026 - 18.05Uhr17.1 °C8.5 °C57 %86.0 W/m²1.6 km/hSüdosten3.2 km/h1013.7 hPa0.0 mm0.0 mm/hwechselhaft
03.05.2026 - 18.10Uhr17.1 °C8.8 °C58 %77.0 W/m²1.8 km/hSüdosten6.5 km/h1013.7 hPa0.0 mm0.0 mm/hwechselhaft
03.05.2026 - 18.15Uhr17.1 °C8.8 °C58 %74.0 W/m²1.3 km/hSüdosten3.2 km/h1013.6 hPa0.0 mm0.0 mm/hwechselhaft
03.05.2026 - 18.20Uhr17.1 °C8.4 °C56 %63.0 W/m²0.7 km/hSüdosten1.4 km/h1013.6 hPa0.0 mm0.0 mm/hwechselhaft
03.05.2026 - 18.25Uhr17.1 °C8.2 °C56 %67.0 W/m²0.9 km/hSüdosten3.2 km/h1013.6 hPa0.0 mm0.0 mm/hwechselhaft
03.05.2026 - 18.30Uhr17.1 °C8.4 °C56 %91.0 W/m²1.8 km/hSüdosten3.2 km/h1013.6 hPa0.0 mm0.0 mm/hwechselhaft
03.05.2026 - 18.35Uhr17.1 °C8.1 °C55 %111.0 W/m²0.4 km/hSüdosten1.4 km/h1013.5 hPa0.0 mm0.0 mm/hwechselhaft
03.05.2026 - 18.40Uhr17.1 °C8.4 °C57 %113.0 W/m²0.5 km/hSüdosten1.4 km/h1013.4 hPa0.0 mm0.0 mm/hwechselhaft
03.05.2026 - 18.45Uhr17.2 °C8.2 °C55 %111.0 W/m²0.1 km/hSüdosten1.4 km/h1013.3 hPa0.0 mm0.0 mm/hwechselhaft
03.05.2026 - 18.50Uhr17.2 °C8.0 °C55 %102.0 W/m²0.0 km/hSüdosten0.0 km/h1013.2 hPa0.0 mm0.0 mm/hwechselhaft
03.05.2026 - 18.55Uhr17.2 °C8.2 °C56 %98.0 W/m²1.1 km/hSüdosten3.2 km/h1013.1 hPa0.0 mm0.0 mm/hwechselhaft
03.05.2026 - 19.00Uhr17.2 °C8.7 °C57 %97.0 W/m²2.7 km/hSüdosten7.9 km/h1013.1 hPa0.0 mm0.0 mm/hwechselhaft
03.05.2026 - 19.05Uhr17.2 °C8.4 °C56 %91.0 W/m²0.7 km/hSüdosten3.2 km/h1013.1 hPa0.0 mm0.0 mm/hwechselhaft
03.05.2026 - 19.10Uhr17.2 °C9.8 °C62 %88.0 W/m²2.4 km/hSüdosten6.5 km/h1013.1 hPa0.0 mm0.0 mm/hwechselhaft
03.05.2026 - 19.15Uhr17.2 °C9.7 °C61 %90.0 W/m²6.0 km/hNordwesten9.7 km/h1013.2 hPa0.0 mm0.0 mm/hwechselhaft
03.05.2026 - 19.20Uhr17.0 °C9.2 °C60 %90.0 W/m²9.4 km/hWest-NW13.0 km/h1013.1 hPa0.0 mm0.0 mm/hwechselhaft
03.05.2026 - 19.25Uhr16.7 °C8.3 °C58 %84.0 W/m²9.5 km/hWest-NW14.4 km/h1013.2 hPa0.0 mm0.0 mm/hwechselhaft
03.05.2026 - 19.30Uhr16.5 °C8.3 °C58 %79.0 W/m²6.3 km/hNordwesten11.2 km/h1013.1 hPa0.0 mm0.0 mm/hwechselhaft
03.05.2026 - 19.35Uhr16.3 °C8.1 °C58 %69.0 W/m²7.9 km/hWest-NW14.4 km/h1013.1 hPa0.0 mm0.0 mm/hwechselhaft
03.05.2026 - 19.40Uhr16.1 °C7.5 °C57 %60.0 W/m²6.8 km/hWest-NW9.7 km/h1013.0 hPa0.0 mm0.0 mm/hwechselhaft
03.05.2026 - 19.45Uhr15.9 °C7.4 °C57 %53.0 W/m²6.7 km/hWest-NW11.2 km/h1013.0 hPa0.0 mm0.0 mm/hwechselhaft
03.05.2026 - 19.50Uhr15.7 °C7.2 °C57 %46.0 W/m²6.6 km/hWest-NW9.7 km/h1013.0 hPa0.0 mm0.0 mm/hwechselhaft
03.05.2026 - 19.55Uhr15.6 °C7.4 °C58 %39.0 W/m²5.9 km/hWest-NW7.9 km/h1013.0 hPa0.0 mm0.0 mm/hwechselhaft
03.05.2026 - 20.00Uhr15.4 °C7.1 °C58 %32.0 W/m²4.9 km/hWest-NW7.9 km/h1013.1 hPa0.0 mm0.0 mm/hwechselhaft
03.05.2026 - 20.05Uhr15.3 °C6.9 °C58 %26.0 W/m²4.8 km/hWest-NW7.9 km/h1013.1 hPa0.0 mm0.0 mm/hwechselhaft
03.05.2026 - 20.10Uhr15.2 °C6.9 °C58 %21.0 W/m²4.0 km/hWest-NW6.5 km/h1013.1 hPa0.0 mm0.0 mm/hwechselhaft
03.05.2026 - 20.15Uhr15.1 °C6.9 °C58 %18.0 W/m²1.0 km/hWest-NW3.2 km/h1013.1 hPa0.0 mm0.0 mm/hwechselhaft
03.05.2026 - 20.20Uhr15.0 °C6.8 °C58 %14.0 W/m²0.0 km/hWest-NW0.0 km/h1013.2 hPa0.0 mm0.0 mm/hwechselhaft
03.05.2026 - 20.25Uhr14.9 °C6.9 °C59 %16.0 W/m²1.8 km/hNord-NW3.2 km/h1013.2 hPa0.0 mm0.0 mm/hwechselhaft
03.05.2026 - 20.30Uhr14.8 °C6.7 °C58 %16.0 W/m²1.1 km/hNord-NW3.2 km/h1013.2 hPa0.0 mm0.0 mm/hwechselhaft
03.05.2026 - 20.35Uhr14.8 °C6.8 °C59 %9.0 W/m²0.0 km/hNord-NW0.0 km/h1013.2 hPa0.0 mm0.0 mm/hwechselhaft
03.05.2026 - 20.40Uhr14.8 °C6.9 °C59 %0.0 W/m²0.7 km/hNord-NW3.2 km/h1013.2 hPa0.0 mm0.0 mm/hwechselhaft
03.05.2026 - 20.45Uhr14.7 °C7.1 °C60 %0.0 W/m²0.1 km/hNord-NW1.4 km/h1013.2 hPa0.0 mm0.0 mm/hwechselhaft
03.05.2026 - 20.50Uhr14.6 °C7.1 °C61 %0.0 W/m²0.0 km/hNord-NW0.0 km/h1013.3 hPa0.0 mm0.0 mm/hwechselhaft
03.05.2026 - 20.55Uhr14.4 °C7.0 °C61 %0.0 W/m²0.4 km/hNord-NW1.4 km/h1013.3 hPa0.0 mm0.0 mm/hwechselhaft
03.05.2026 - 21.00Uhr14.3 °C6.9 °C61 %0.0 W/m²0.5 km/hNord-NW1.4 km/h1013.3 hPa0.0 mm0.0 mm/hwechselhaft
03.05.2026 - 21.05Uhr14.2 °C6.8 °C61 %0.0 W/m²0.0 km/hNord-NW0.0 km/h1013.4 hPa0.0 mm0.0 mm/hwechselhaft
03.05.2026 - 21.10Uhr14.1 °C6.5 °C60 %0.0 W/m²0.0 km/hNord-NW0.0 km/h1013.5 hPa0.0 mm0.0 mm/hwechselhaft
03.05.2026 - 21.15Uhr13.9 °C6.4 °C61 %0.0 W/m²0.5 km/hNord-NW1.4 km/h1013.5 hPa0.0 mm0.0 mm/hwechselhaft
03.05.2026 - 21.20Uhr13.8 °C6.5 °C62 %0.0 W/m²1.0 km/hNord-NW3.2 km/h1013.5 hPa0.0 mm0.0 mm/hwechselhaft
03.05.2026 - 21.25Uhr13.6 °C6.7 °C63 %0.0 W/m²0.0 km/hNord-NW0.0 km/h1013.6 hPa0.0 mm0.0 mm/hwechselhaft
03.05.2026 - 21.30Uhr13.5 °C6.6 °C63 %0.0 W/m²0.2 km/hNord-NW1.4 km/h1013.7 hPa0.0 mm0.0 mm/hwechselhaft
03.05.2026 - 21.35Uhr13.3 °C6.7 °C64 %0.0 W/m²0.6 km/hNord-NW1.4 km/h1013.7 hPa0.0 mm0.0 mm/hwechselhaft
03.05.2026 - 21.40Uhr13.2 °C6.9 °C65 %0.0 W/m²1.1 km/hNord-NW3.2 km/h1013.7 hPa0.0 mm0.0 mm/hwechselhaft